sensor_id;sensor_type;location;lat;lon;timestamp;P1;durP1;ratioP1;P2;durP2;ratioP2
1376;SDS011;682;52.502;13.488;2023-07-20T00:00:11;5.03;;;4.70;;
1376;SDS011;682;52.502;13.488;2023-07-20T00:02:39;5.17;;;4.77;;
1376;SDS011;682;52.502;13.488;2023-07-20T00:05:06;5.40;;;4.93;;
1376;SDS011;682;52.502;13.488;2023-07-20T00:07:33;5.10;;;4.73;;
1376;SDS011;682;52.502;13.488;2023-07-20T00:10:00;5.33;;;4.97;;
1376;SDS011;682;52.502;13.488;2023-07-20T00:12:28;6.20;;;5.60;;
1376;SDS011;682;52.502;13.488;2023-07-20T00:14:55;5.77;;;5.30;;
1376;SDS011;682;52.502;13.488;2023-07-20T00:17:22;5.90;;;5.40;;
1376;SDS011;682;52.502;13.488;2023-07-20T00:19:49;5.63;;;5.23;;
1376;SDS011;682;52.502;13.488;2023-07-20T00:22:18;5.47;;;5.07;;
1376;SDS011;682;52.502;13.488;2023-07-20T00:24:45;9.03;;;5.83;;
1376;SDS011;682;52.502;13.488;2023-07-20T00:27:12;5.40;;;5.00;;
1376;SDS011;682;52.502;13.488;2023-07-20T00:29:40;5.33;;;4.93;;
1376;SDS011;682;52.502;13.488;2023-07-20T00:32:07;6.07;;;5.50;;
1376;SDS011;682;52.502;13.488;2023-07-20T00:34:35;5.63;;;5.13;;
1376;SDS011;682;52.502;13.488;2023-07-20T00:37:02;5.43;;;4.93;;
1376;SDS011;682;52.502;13.488;2023-07-20T00:39:29;5.97;;;5.20;;
1376;SDS011;682;52.502;13.488;2023-07-20T00:41:56;5.37;;;4.97;;
1376;SDS011;682;52.502;13.488;2023-07-20T00:44:22;5.67;;;5.23;;
1376;SDS011;682;52.502;13.488;2023-07-20T00:46:51;6.57;;;5.93;;
1376;SDS011;682;52.502;13.488;2023-07-20T00:49:18;6.03;;;5.37;;
1376;SDS011;682;52.502;13.488;2023-07-20T00:51:47;5.97;;;5.50;;
1376;SDS011;682;52.502;13.488;2023-07-20T00:54:15;5.70;;;5.30;;
1376;SDS011;682;52.502;13.488;2023-07-20T00:56:43;5.43;;;4.97;;
1376;SDS011;682;52.502;13.488;2023-07-20T00:59:11;6.03;;;5.53;;
1376;SDS011;682;52.502;13.488;2023-07-20T01:04:07;6.23;;;5.73;;
1376;SDS011;682;52.502;13.488;2023-07-20T01:06:36;7.73;;;6.00;;
1376;SDS011;682;52.502;13.488;2023-07-20T01:09:13;7.77;;;7.03;;
1376;SDS011;682;52.502;13.488;2023-07-20T01:11:43;7.27;;;6.63;;
1376;SDS011;682;52.502;13.488;2023-07-20T01:14:17;7.23;;;6.53;;
1376;SDS011;682;52.502;13.488;2023-07-20T01:16:46;6.97;;;6.47;;
1376;SDS011;682;52.502;13.488;2023-07-20T01:19:16;5.87;;;5.43;;
1376;SDS011;682;52.502;13.488;2023-07-20T01:21:44;6.80;;;6.20;;
1376;SDS011;682;52.502;13.488;2023-07-20T01:30:45;6.50;;;6.00;;
1376;SDS011;682;52.502;13.488;2023-07-20T01:33:21;6.07;;;5.60;;
1376;SDS011;682;52.502;13.488;2023-07-20T01:35:51;6.90;;;6.40;;
1376;SDS011;682;52.502;13.488;2023-07-20T01:38:20;6.97;;;6.37;;
1376;SDS011;682;52.502;13.488;2023-07-20T01:40:49;7.50;;;6.83;;
1376;SDS011;682;52.502;13.488;2023-07-20T01:43:18;7.43;;;6.73;;
1376;SDS011;682;52.502;13.488;2023-07-20T01:45:45;7.70;;;7.10;;
1376;SDS011;682;52.502;13.488;2023-07-20T01:48:12;7.00;;;6.40;;
1376;SDS011;682;52.502;13.488;2023-07-20T01:50:40;7.30;;;6.70;;
1376;SDS011;682;52.502;13.488;2023-07-20T01:53:08;7.20;;;6.70;;
1376;SDS011;682;52.502;13.488;2023-07-20T01:55:35;8.13;;;7.50;;
1376;SDS011;682;52.502;13.488;2023-07-20T01:58:02;8.50;;;7.80;;
1376;SDS011;682;52.502;13.488;2023-07-20T02:00:29;8.00;;;7.50;;
1376;SDS011;682;52.502;13.488;2023-07-20T02:02:56;8.20;;;7.60;;
1376;SDS011;682;52.502;13.488;2023-07-20T02:05:23;8.40;;;7.80;;
1376;SDS011;682;52.502;13.488;2023-07-20T02:07:52;9.60;;;8.00;;
1376;SDS011;682;52.502;13.488;2023-07-20T02:10:19;9.63;;;8.70;;
1376;SDS011;682;52.502;13.488;2023-07-20T02:12:45;9.80;;;8.93;;
1376;SDS011;682;52.502;13.488;2023-07-20T02:15:13;8.10;;;7.57;;
1376;SDS011;682;52.502;13.488;2023-07-20T02:17:41;8.13;;;7.63;;
1376;SDS011;682;52.502;13.488;2023-07-20T02:20:08;7.90;;;7.37;;
1376;SDS011;682;52.502;13.488;2023-07-20T02:22:36;7.43;;;6.83;;
1376;SDS011;682;52.502;13.488;2023-07-20T02:25:05;8.23;;;7.70;;
1376;SDS011;682;52.502;13.488;2023-07-20T02:27:33;8.10;;;7.50;;
1376;SDS011;682;52.502;13.488;2023-07-20T02:30:00;7.23;;;6.73;;
1376;SDS011;682;52.502;13.488;2023-07-20T02:32:28;8.50;;;7.70;;
1376;SDS011;682;52.502;13.488;2023-07-20T02:34:56;7.73;;;7.03;;
1376;SDS011;682;52.502;13.488;2023-07-20T02:37:23;7.23;;;6.70;;
1376;SDS011;682;52.502;13.488;2023-07-20T02:39:50;8.73;;;6.80;;
1376;SDS011;682;52.502;13.488;2023-07-20T02:42:19;7.90;;;7.20;;
1376;SDS011;682;52.502;13.488;2023-07-20T02:44:47;8.60;;;7.80;;
1376;SDS011;682;52.502;13.488;2023-07-20T02:47:14;8.90;;;8.20;;
1376;SDS011;682;52.502;13.488;2023-07-20T02:49:41;9.77;;;8.67;;
1376;SDS011;682;52.502;13.488;2023-07-20T02:52:09;12.07;;;10.57;;
1376;SDS011;682;52.502;13.488;2023-07-20T02:54:35;10.50;;;9.70;;
1376;SDS011;682;52.502;13.488;2023-07-20T02:57:03;12.30;;;11.33;;
1376;SDS011;682;52.502;13.488;2023-07-20T02:59:31;11.43;;;10.53;;
1376;SDS011;682;52.502;13.488;2023-07-20T03:01:58;12.90;;;11.90;;
1376;SDS011;682;52.502;13.488;2023-07-20T03:04:25;13.50;;;12.07;;
1376;SDS011;682;52.502;13.488;2023-07-20T03:06:53;13.13;;;12.00;;
1376;SDS011;682;52.502;13.488;2023-07-20T03:09:20;12.33;;;11.20;;
1376;SDS011;682;52.502;13.488;2023-07-20T03:11:47;12.60;;;11.40;;
1376;SDS011;682;52.502;13.488;2023-07-20T03:14:15;11.93;;;10.97;;
1376;SDS011;682;52.502;13.488;2023-07-20T03:16:43;11.93;;;10.93;;
1376;SDS011;682;52.502;13.488;2023-07-20T03:19:10;13.50;;;12.40;;
1376;SDS011;682;52.502;13.488;2023-07-20T03:21:37;12.50;;;11.43;;
1376;SDS011;682;52.502;13.488;2023-07-20T03:24:06;13.23;;;11.93;;
1376;SDS011;682;52.502;13.488;2023-07-20T03:26:33;12.83;;;11.73;;
1376;SDS011;682;52.502;13.488;2023-07-20T03:29:00;12.97;;;11.77;;
1376;SDS011;682;52.502;13.488;2023-07-20T03:31:28;11.90;;;10.67;;
1376;SDS011;682;52.502;13.488;2023-07-20T03:33:56;12.10;;;11.10;;
1376;SDS011;682;52.502;13.488;2023-07-20T03:36:23;12.27;;;11.27;;
1376;SDS011;682;52.502;13.488;2023-07-20T03:38:50;11.50;;;10.20;;
1376;SDS011;682;52.502;13.488;2023-07-20T03:41:17;11.57;;;10.63;;
1376;SDS011;682;52.502;13.488;2023-07-20T03:43:45;13.60;;;12.43;;
1376;SDS011;682;52.502;13.488;2023-07-20T03:46:12;16.07;;;14.57;;
1376;SDS011;682;52.502;13.488;2023-07-20T03:48:38;13.20;;;12.00;;
1376;SDS011;682;52.502;13.488;2023-07-20T03:51:07;12.50;;;11.50;;
1376;SDS011;682;52.502;13.488;2023-07-20T03:53:33;13.63;;;11.70;;
1376;SDS011;682;52.502;13.488;2023-07-20T03:56:00;13.47;;;12.40;;
1376;SDS011;682;52.502;13.488;2023-07-20T03:58:27;13.47;;;12.17;;
1376;SDS011;682;52.502;13.488;2023-07-20T04:00:55;13.17;;;12.17;;
1376;SDS011;682;52.502;13.488;2023-07-20T04:03:23;14.23;;;12.67;;
1376;SDS011;682;52.502;13.488;2023-07-20T04:05:52;12.70;;;11.70;;
1376;SDS011;682;52.502;13.488;2023-07-20T04:08:21;13.77;;;12.50;;
1376;SDS011;682;52.502;13.488;2023-07-20T04:10:49;10.83;;;10.00;;
1376;SDS011;682;52.502;13.488;2023-07-20T04:13:16;12.60;;;11.40;;
1376;SDS011;682;52.502;13.488;2023-07-20T04:15:43;11.23;;;9.63;;
1376;SDS011;682;52.502;13.488;2023-07-20T04:18:11;12.37;;;11.27;;
1376;SDS011;682;52.502;13.488;2023-07-20T04:20:38;12.70;;;10.30;;
1376;SDS011;682;52.502;13.488;2023-07-20T04:23:05;13.30;;;10.47;;
1376;SDS011;682;52.502;13.488;2023-07-20T04:25:33;11.77;;;10.67;;
1376;SDS011;682;52.502;13.488;2023-07-20T04:28:04;12.60;;;11.60;;
1376;SDS011;682;52.502;13.488;2023-07-20T04:30:34;11.60;;;10.60;;
1376;SDS011;682;52.502;13.488;2023-07-20T04:33:01;11.43;;;10.53;;
1376;SDS011;682;52.502;13.488;2023-07-20T04:35:44;12.57;;;11.60;;
1376;SDS011;682;52.502;13.488;2023-07-20T04:38:13;12.40;;;11.20;;
1376;SDS011;682;52.502;13.488;2023-07-20T04:40:42;13.77;;;12.50;;
1376;SDS011;682;52.502;13.488;2023-07-20T04:43:09;13.13;;;12.00;;
1376;SDS011;682;52.502;13.488;2023-07-20T04:45:36;12.33;;;11.33;;
1376;SDS011;682;52.502;13.488;2023-07-20T04:48:03;11.90;;;10.90;;
1376;SDS011;682;52.502;13.488;2023-07-20T04:50:31;11.87;;;10.77;;
1376;SDS011;682;52.502;13.488;2023-07-20T04:52:58;11.17;;;10.27;;
1376;SDS011;682;52.502;13.488;2023-07-20T04:55:27;10.63;;;9.73;;
1376;SDS011;682;52.502;13.488;2023-07-20T04:57:55;11.73;;;10.73;;
1376;SDS011;682;52.502;13.488;2023-07-20T05:00:22;10.93;;;9.97;;
1376;SDS011;682;52.502;13.488;2023-07-20T05:02:49;10.40;;;9.50;;
1376;SDS011;682;52.502;13.488;2023-07-20T05:05:16;10.57;;;9.60;;
1376;SDS011;682;52.502;13.488;2023-07-20T05:07:43;11.70;;;10.60;;
1376;SDS011;682;52.502;13.488;2023-07-20T05:10:10;11.00;;;10.10;;
1376;SDS011;682;52.502;13.488;2023-07-20T05:12:37;12.77;;;11.67;;
1376;SDS011;682;52.502;13.488;2023-07-20T05:15:06;12.70;;;11.53;;
1376;SDS011;682;52.502;13.488;2023-07-20T05:17:33;10.93;;;10.13;;
1376;SDS011;682;52.502;13.488;2023-07-20T05:20:01;10.07;;;9.27;;
1376;SDS011;682;52.502;13.488;2023-07-20T05:22:29;11.23;;;10.03;;
1376;SDS011;682;52.502;13.488;2023-07-20T05:24:57;9.93;;;9.23;;
1376;SDS011;682;52.502;13.488;2023-07-20T05:27:24;10.17;;;9.33;;
1376;SDS011;682;52.502;13.488;2023-07-20T05:29:51;9.10;;;8.40;;
1376;SDS011;682;52.502;13.488;2023-07-20T05:32:19;8.47;;;7.77;;
1376;SDS011;682;52.502;13.488;2023-07-20T05:34:46;8.27;;;7.53;;
1376;SDS011;682;52.502;13.488;2023-07-20T05:37:13;9.17;;;8.03;;
1376;SDS011;682;52.502;13.488;2023-07-20T05:39:40;7.87;;;7.27;;
1376;SDS011;682;52.502;13.488;2023-07-20T05:42:07;17.40;;;15.67;;
1376;SDS011;682;52.502;13.488;2023-07-20T05:44:34;14.20;;;8.07;;
1376;SDS011;682;52.502;13.488;2023-07-20T05:47:01;7.00;;;6.40;;
1376;SDS011;682;52.502;13.488;2023-07-20T05:49:30;9.20;;;7.00;;
1376;SDS011;682;52.502;13.488;2023-07-20T05:51:58;8.60;;;6.80;;
1376;SDS011;682;52.502;13.488;2023-07-20T05:54:26;6.50;;;6.00;;
1376;SDS011;682;52.502;13.488;2023-07-20T05:56:53;6.90;;;6.23;;
1376;SDS011;682;52.502;13.488;2023-07-20T05:59:20;7.53;;;6.87;;
1376;SDS011;682;52.502;13.488;2023-07-20T06:01:48;6.70;;;6.10;;
1376;SDS011;682;52.502;13.488;2023-07-20T06:04:15;7.03;;;6.43;;
1376;SDS011;682;52.502;13.488;2023-07-20T06:06:45;6.57;;;6.07;;
1376;SDS011;682;52.502;13.488;2023-07-20T06:09:13;10.07;;;9.17;;
1376;SDS011;682;52.502;13.488;2023-07-20T06:11:40;7.10;;;6.50;;
1376;SDS011;682;52.502;13.488;2023-07-20T06:14:07;7.07;;;6.57;;
1376;SDS011;682;52.502;13.488;2023-07-20T06:16:34;7.73;;;6.47;;
1376;SDS011;682;52.502;13.488;2023-07-20T06:19:01;8.27;;;7.50;;
1376;SDS011;682;52.502;13.488;2023-07-20T06:21:28;7.87;;;7.23;;
1376;SDS011;682;52.502;13.488;2023-07-20T06:23:57;8.27;;;7.57;;
1376;SDS011;682;52.502;13.488;2023-07-20T06:26:24;9.43;;;8.43;;
1376;SDS011;682;52.502;13.488;2023-07-20T06:28:51;8.80;;;8.00;;
1376;SDS011;682;52.502;13.488;2023-07-20T06:31:18;8.97;;;8.07;;
1376;SDS011;682;52.502;13.488;2023-07-20T06:33:45;8.73;;;7.93;;
1376;SDS011;682;52.502;13.488;2023-07-20T06:36:12;7.57;;;6.97;;
1376;SDS011;682;52.502;13.488;2023-07-20T06:38:39;7.50;;;6.80;;
1376;SDS011;682;52.502;13.488;2023-07-20T06:41:08;6.80;;;6.30;;
1376;SDS011;682;52.502;13.488;2023-07-20T06:43:34;6.80;;;6.20;;
1376;SDS011;682;52.502;13.488;2023-07-20T06:46:01;6.83;;;6.27;;
1376;SDS011;682;52.502;13.488;2023-07-20T06:48:28;5.80;;;5.40;;
1376;SDS011;682;52.502;13.488;2023-07-20T06:50:56;7.03;;;5.03;;
1376;SDS011;682;52.502;13.488;2023-07-20T06:53:23;4.77;;;4.37;;
1376;SDS011;682;52.502;13.488;2023-07-20T06:55:50;5.20;;;4.70;;
1376;SDS011;682;52.502;13.488;2023-07-20T06:58:18;5.80;;;5.30;;
1376;SDS011;682;52.502;13.488;2023-07-20T07:00:46;5.80;;;5.23;;
1376;SDS011;682;52.502;13.488;2023-07-20T07:03:13;4.03;;;3.60;;
1376;SDS011;682;52.502;13.488;2023-07-20T07:05:40;3.77;;;3.30;;
1376;SDS011;682;52.502;13.488;2023-07-20T07:08:07;4.10;;;3.70;;
1376;SDS011;682;52.502;13.488;2023-07-20T07:10:35;5.00;;;3.60;;
1376;SDS011;682;52.502;13.488;2023-07-20T07:13:03;4.57;;;4.17;;
1376;SDS011;682;52.502;13.488;2023-07-20T07:15:31;3.57;;;3.27;;
1376;SDS011;682;52.502;13.488;2023-07-20T07:17:58;5.63;;;3.63;;
1376;SDS011;682;52.502;13.488;2023-07-20T07:20:25;3.10;;;2.90;;
1376;SDS011;682;52.502;13.488;2023-07-20T07:22:53;4.77;;;3.10;;
1376;SDS011;682;52.502;13.488;2023-07-20T07:25:20;3.83;;;3.37;;
1376;SDS011;682;52.502;13.488;2023-07-20T07:27:48;3.10;;;2.80;;
1376;SDS011;682;52.502;13.488;2023-07-20T07:30:15;2.90;;;2.70;;
1376;SDS011;682;52.502;13.488;2023-07-20T07:32:43;3.27;;;3.03;;
1376;SDS011;682;52.502;13.488;2023-07-20T07:35:10;3.93;;;2.57;;
1376;SDS011;682;52.502;13.488;2023-07-20T07:37:38;3.00;;;2.60;;
1376;SDS011;682;52.502;13.488;2023-07-20T07:40:06;3.63;;;2.97;;
1376;SDS011;682;52.502;13.488;2023-07-20T07:42:33;2.13;;;1.90;;
1376;SDS011;682;52.502;13.488;2023-07-20T07:45:01;2.33;;;2.13;;
1376;SDS011;682;52.502;13.488;2023-07-20T07:47:28;5.13;;;2.43;;
1376;SDS011;682;52.502;13.488;2023-07-20T07:49:56;2.07;;;1.70;;
1376;SDS011;682;52.502;13.488;2023-07-20T07:52:23;2.20;;;1.33;;
1376;SDS011;682;52.502;13.488;2023-07-20T07:54:50;1.27;;;1.17;;
1376;SDS011;682;52.502;13.488;2023-07-20T07:57:17;2.30;;;1.60;;
1376;SDS011;682;52.502;13.488;2023-07-20T07:59:44;2.73;;;1.70;;
1376;SDS011;682;52.502;13.488;2023-07-20T08:02:11;2.10;;;2.00;;
1376;SDS011;682;52.502;13.488;2023-07-20T08:04:38;2.73;;;2.40;;
1376;SDS011;682;52.502;13.488;2023-07-20T08:07:06;2.20;;;1.40;;
1376;SDS011;682;52.502;13.488;2023-07-20T08:09:33;2.97;;;1.33;;
1376;SDS011;682;52.502;13.488;2023-07-20T08:12:00;1.87;;;1.60;;
1376;SDS011;682;52.502;13.488;2023-07-20T08:14:28;1.80;;;1.53;;
1376;SDS011;682;52.502;13.488;2023-07-20T08:16:55;2.60;;;1.97;;
1376;SDS011;682;52.502;13.488;2023-07-20T08:19:23;2.07;;;1.70;;
1376;SDS011;682;52.502;13.488;2023-07-20T08:21:50;2.67;;;1.90;;
1376;SDS011;682;52.502;13.488;2023-07-20T08:24:18;3.17;;;2.40;;
1376;SDS011;682;52.502;13.488;2023-07-20T08:26:45;4.63;;;2.27;;
1376;SDS011;682;52.502;13.488;2023-07-20T08:29:12;2.33;;;2.10;;
1376;SDS011;682;52.502;13.488;2023-07-20T08:31:39;2.00;;;1.37;;
1376;SDS011;682;52.502;13.488;2023-07-20T08:34:06;1.83;;;1.10;;
1376;SDS011;682;52.502;13.488;2023-07-20T08:36:33;2.00;;;1.40;;
1376;SDS011;682;52.502;13.488;2023-07-20T08:39:00;1.50;;;1.40;;
1376;SDS011;682;52.502;13.488;2023-07-20T08:41:30;1.30;;;1.10;;
1376;SDS011;682;52.502;13.488;2023-07-20T08:43:56;1.30;;;1.10;;
1376;SDS011;682;52.502;13.488;2023-07-20T08:46:25;4.03;;;1.50;;
1376;SDS011;682;52.502;13.488;2023-07-20T08:48:54;1.53;;;1.13;;
1376;SDS011;682;52.502;13.488;2023-07-20T08:51:22;1.83;;;1.13;;
1376;SDS011;682;52.502;13.488;2023-07-20T08:53:51;5.80;;;1.60;;
1376;SDS011;682;52.502;13.488;2023-07-20T08:56:18;2.27;;;1.60;;
1376;SDS011;682;52.502;13.488;2023-07-20T08:58:48;1.83;;;1.30;;
1376;SDS011;682;52.502;13.488;2023-07-20T09:01:15;1.70;;;1.20;;
1376;SDS011;682;52.502;13.488;2023-07-20T09:03:44;1.50;;;1.00;;
1376;SDS011;682;52.502;13.488;2023-07-20T09:06:12;1.20;;;0.83;;
1376;SDS011;682;52.502;13.488;2023-07-20T09:08:39;7.37;;;6.87;;
1376;SDS011;682;52.502;13.488;2023-07-20T09:11:07;3.43;;;1.27;;
1376;SDS011;682;52.502;13.488;2023-07-20T09:13:34;1.77;;;1.20;;
1376;SDS011;682;52.502;13.488;2023-07-20T09:16:03;1.10;;;1.00;;
1376;SDS011;682;52.502;13.488;2023-07-20T09:18:31;1.20;;;1.10;;
1376;SDS011;682;52.502;13.488;2023-07-20T09:21:00;1.33;;;0.93;;
1376;SDS011;682;52.502;13.488;2023-07-20T09:23:31;1.10;;;0.87;;
1376;SDS011;682;52.502;13.488;2023-07-20T09:25:59;1.70;;;0.80;;
1376;SDS011;682;52.502;13.488;2023-07-20T09:28:26;1.70;;;1.20;;
1376;SDS011;682;52.502;13.488;2023-07-20T09:30:54;1.67;;;1.27;;
1376;SDS011;682;52.502;13.488;2023-07-20T09:33:24;1.10;;;0.90;;
1376;SDS011;682;52.502;13.488;2023-07-20T09:35:51;2.43;;;1.00;;
1376;SDS011;682;52.502;13.488;2023-07-20T09:38:18;5.00;;;1.20;;
1376;SDS011;682;52.502;13.488;2023-07-20T09:40:45;1.77;;;1.60;;
1376;SDS011;682;52.502;13.488;2023-07-20T09:43:12;1.63;;;1.00;;
1376;SDS011;682;52.502;13.488;2023-07-20T09:45:42;1.30;;;0.97;;
1376;SDS011;682;52.502;13.488;2023-07-20T09:48:10;2.70;;;0.80;;
1376;SDS011;682;52.502;13.488;2023-07-20T09:50:42;2.93;;;1.13;;
1376;SDS011;682;52.502;13.488;2023-07-20T09:53:15;1.20;;;1.10;;
1376;SDS011;682;52.502;13.488;2023-07-20T09:55:44;1.63;;;1.00;;
1376;SDS011;682;52.502;13.488;2023-07-20T09:58:12;1.33;;;0.93;;
1376;SDS011;682;52.502;13.488;2023-07-20T10:00:40;2.00;;;1.27;;
1376;SDS011;682;52.502;13.488;2023-07-20T10:03:10;1.13;;;0.90;;
1376;SDS011;682;52.502;13.488;2023-07-20T10:05:39;2.07;;;1.20;;
1376;SDS011;682;52.502;13.488;2023-07-20T10:08:11;2.67;;;1.27;;
1376;SDS011;682;52.502;13.488;2023-07-20T10:10:40;1.37;;;1.00;;
1376;SDS011;682;52.502;13.488;2023-07-20T10:13:09;1.43;;;1.33;;
1376;SDS011;682;52.502;13.488;2023-07-20T10:15:40;2.10;;;1.67;;
1376;SDS011;682;52.502;13.488;2023-07-20T10:18:12;2.30;;;2.10;;
1376;SDS011;682;52.502;13.488;2023-07-20T10:20:48;1.90;;;1.70;;
1376;SDS011;682;52.502;13.488;2023-07-20T10:23:18;2.27;;;1.90;;
1376;SDS011;682;52.502;13.488;2023-07-20T10:25:46;2.43;;;1.50;;
1376;SDS011;682;52.502;13.488;2023-07-20T10:28:16;5.27;;;1.77;;
1376;SDS011;682;52.502;13.488;2023-07-20T10:30:43;1.93;;;1.40;;
1376;SDS011;682;52.502;13.488;2023-07-20T10:33:11;3.57;;;2.50;;
1376;SDS011;682;52.502;13.488;2023-07-20T10:35:51;3.80;;;3.50;;
1376;SDS011;682;52.502;13.488;2023-07-20T10:38:25;2.57;;;1.50;;
1376;SDS011;682;52.502;13.488;2023-07-20T10:41:15;1.70;;;1.30;;
1376;SDS011;682;52.502;13.488;2023-07-20T10:43:43;3.33;;;1.80;;
1376;SDS011;682;52.502;13.488;2023-07-20T10:46:11;2.33;;;1.70;;
1376;SDS011;682;52.502;13.488;2023-07-20T10:51:27;2.73;;;1.97;;
1376;SDS011;682;52.502;13.488;2023-07-20T10:53:57;4.70;;;1.47;;
1376;SDS011;682;52.502;13.488;2023-07-20T10:56:26;2.00;;;1.50;;
1376;SDS011;682;52.502;13.488;2023-07-20T10:58:57;1.60;;;1.30;;
1376;SDS011;682;52.502;13.488;2023-07-20T11:01:27;3.17;;;1.43;;
1376;SDS011;682;52.502;13.488;2023-07-20T11:03:57;1.67;;;1.53;;
1376;SDS011;682;52.502;13.488;2023-07-20T11:06:32;2.53;;;1.50;;
1376;SDS011;682;52.502;13.488;2023-07-20T11:09:05;3.40;;;1.47;;
1376;SDS011;682;52.502;13.488;2023-07-20T11:11:36;2.10;;;1.97;;
1376;SDS011;682;52.502;13.488;2023-07-20T11:14:04;1.60;;;1.50;;
1376;SDS011;682;52.502;13.488;2023-07-20T11:16:37;2.73;;;2.07;;
1376;SDS011;682;52.502;13.488;2023-07-20T11:19:05;7.33;;;1.80;;
1376;SDS011;682;52.502;13.488;2023-07-20T11:21:40;6.57;;;3.50;;
1376;SDS011;682;52.502;13.488;2023-07-20T11:24:10;2.90;;;1.60;;
1376;SDS011;682;52.502;13.488;2023-07-20T11:26:47;4.20;;;2.20;;
1376;SDS011;682;52.502;13.488;2023-07-20T11:29:16;3.37;;;1.40;;
1376;SDS011;682;52.502;13.488;2023-07-20T11:31:45;2.17;;;1.80;;
1376;SDS011;682;52.502;13.488;2023-07-20T11:34:14;2.33;;;1.60;;
1376;SDS011;682;52.502;13.488;2023-07-20T11:36:42;1.70;;;1.60;;
1376;SDS011;682;52.502;13.488;2023-07-20T11:39:12;2.17;;;1.50;;
1376;SDS011;682;52.502;13.488;2023-07-20T11:41:43;3.03;;;1.33;;
1376;SDS011;682;52.502;13.488;2023-07-20T11:44:12;2.00;;;1.27;;
1376;SDS011;682;52.502;13.488;2023-07-20T11:46:41;2.90;;;1.47;;
1376;SDS011;682;52.502;13.488;2023-07-20T11:49:09;2.17;;;1.47;;
1376;SDS011;682;52.502;13.488;2023-07-20T11:51:36;1.93;;;1.00;;
1376;SDS011;682;52.502;13.488;2023-07-20T11:54:05;1.30;;;1.20;;
1376;SDS011;682;52.502;13.488;2023-07-20T11:56:35;2.70;;;1.10;;
1376;SDS011;682;52.502;13.488;2023-07-20T11:59:02;2.90;;;1.20;;
1376;SDS011;682;52.502;13.488;2023-07-20T12:01:29;4.60;;;1.20;;
1376;SDS011;682;52.502;13.488;2023-07-20T12:03:59;1.80;;;1.40;;
1376;SDS011;682;52.502;13.488;2023-07-20T12:06:27;2.47;;;0.90;;
1376;SDS011;682;52.502;13.488;2023-07-20T12:08:56;1.17;;;0.87;;
1376;SDS011;682;52.502;13.488;2023-07-20T12:11:30;1.43;;;0.80;;
1376;SDS011;682;52.502;13.488;2023-07-20T12:13:59;1.40;;;1.10;;
1376;SDS011;682;52.502;13.488;2023-07-20T12:16:27;1.00;;;0.80;;
1376;SDS011;682;52.502;13.488;2023-07-20T12:18:59;1.20;;;0.80;;
1376;SDS011;682;52.502;13.488;2023-07-20T12:21:31;2.43;;;1.27;;
1376;SDS011;682;52.502;13.488;2023-07-20T12:24:00;2.10;;;0.97;;
1376;SDS011;682;52.502;13.488;2023-07-20T12:26:28;1.47;;;1.20;;
1376;SDS011;682;52.502;13.488;2023-07-20T12:28:59;1.83;;;0.90;;
1376;SDS011;682;52.502;13.488;2023-07-20T12:31:28;0.80;;;0.77;;
1376;SDS011;682;52.502;13.488;2023-07-20T12:33:56;1.90;;;1.30;;
1376;SDS011;682;52.502;13.488;2023-07-20T12:36:24;1.93;;;1.23;;
1376;SDS011;682;52.502;13.488;2023-07-20T12:38:51;2.47;;;1.13;;
1376;SDS011;682;52.502;13.488;2023-07-20T12:41:18;1.00;;;0.90;;
1376;SDS011;682;52.502;13.488;2023-07-20T12:43:45;1.70;;;1.40;;
1376;SDS011;682;52.502;13.488;2023-07-20T12:46:13;1.80;;;1.33;;
1376;SDS011;682;52.502;13.488;2023-07-20T12:48:41;1.37;;;1.27;;
1376;SDS011;682;52.502;13.488;2023-07-20T12:51:08;3.73;;;1.10;;
1376;SDS011;682;52.502;13.488;2023-07-20T12:53:37;2.83;;;0.90;;
1376;SDS011;682;52.502;13.488;2023-07-20T12:56:04;1.17;;;0.90;;
1376;SDS011;682;52.502;13.488;2023-07-20T12:58:31;1.53;;;1.00;;
1376;SDS011;682;52.502;13.488;2023-07-20T13:00:58;1.20;;;1.10;;
1376;SDS011;682;52.502;13.488;2023-07-20T13:03:27;0.90;;;0.80;;
1376;SDS011;682;52.502;13.488;2023-07-20T13:05:54;1.60;;;0.70;;
1376;SDS011;682;52.502;13.488;2023-07-20T13:08:23;1.23;;;0.80;;
1376;SDS011;682;52.502;13.488;2023-07-20T13:10:52;4.33;;;1.10;;
1376;SDS011;682;52.502;13.488;2023-07-20T13:13:19;2.27;;;1.10;;
1376;SDS011;682;52.502;13.488;2023-07-20T13:15:46;4.23;;;1.13;;
1376;SDS011;682;52.502;13.488;2023-07-20T13:18:13;1.63;;;0.90;;
1376;SDS011;682;52.502;13.488;2023-07-20T13:20:42;0.60;;;0.40;;
1376;SDS011;682;52.502;13.488;2023-07-20T13:23:09;1.90;;;1.53;;
1376;SDS011;682;52.502;13.488;2023-07-20T13:25:36;4.63;;;4.33;;
1376;SDS011;682;52.502;13.488;2023-07-20T13:28:04;1.20;;;0.90;;
1376;SDS011;682;52.502;13.488;2023-07-20T13:30:31;1.43;;;0.80;;
1376;SDS011;682;52.502;13.488;2023-07-20T13:32:58;0.87;;;0.70;;
1376;SDS011;682;52.502;13.488;2023-07-20T13:35:25;1.57;;;0.83;;
1376;SDS011;682;52.502;13.488;2023-07-20T13:37:54;2.07;;;1.13;;
1376;SDS011;682;52.502;13.488;2023-07-20T13:40:21;0.90;;;0.60;;
1376;SDS011;682;52.502;13.488;2023-07-20T13:42:48;2.33;;;0.70;;
1376;SDS011;682;52.502;13.488;2023-07-20T13:45:15;1.93;;;0.80;;
1376;SDS011;682;52.502;13.488;2023-07-20T13:47:42;1.20;;;0.57;;
1376;SDS011;682;52.502;13.488;2023-07-20T13:50:10;0.77;;;0.60;;
1376;SDS011;682;52.502;13.488;2023-07-20T13:52:37;0.80;;;0.80;;
1376;SDS011;682;52.502;13.488;2023-07-20T13:55:06;1.47;;;0.70;;
1376;SDS011;682;52.502;13.488;2023-07-20T13:57:33;4.17;;;1.10;;
1376;SDS011;682;52.502;13.488;2023-07-20T14:00:00;1.37;;;0.70;;
1376;SDS011;682;52.502;13.488;2023-07-20T14:02:30;2.03;;;0.50;;
1376;SDS011;682;52.502;13.488;2023-07-20T14:04:57;1.27;;;1.17;;
1376;SDS011;682;52.502;13.488;2023-07-20T14:07:24;1.17;;;0.80;;
1376;SDS011;682;52.502;13.488;2023-07-20T14:09:51;1.47;;;0.70;;
1376;SDS011;682;52.502;13.488;2023-07-20T14:12:20;1.77;;;0.80;;
1376;SDS011;682;52.502;13.488;2023-07-20T14:14:47;1.10;;;0.70;;
1376;SDS011;682;52.502;13.488;2023-07-20T14:17:14;0.90;;;0.70;;
1376;SDS011;682;52.502;13.488;2023-07-20T14:19:41;1.23;;;1.13;;
1376;SDS011;682;52.502;13.488;2023-07-20T14:22:08;1.23;;;1.13;;
1376;SDS011;682;52.502;13.488;2023-07-20T14:24:36;2.63;;;0.90;;
1376;SDS011;682;52.502;13.488;2023-07-20T14:27:04;1.90;;;1.57;;
1376;SDS011;682;52.502;13.488;2023-07-20T14:29:32;3.90;;;3.50;;
1376;SDS011;682;52.502;13.488;2023-07-20T14:32:01;0.90;;;0.80;;
1376;SDS011;682;52.502;13.488;2023-07-20T14:34:31;1.00;;;0.63;;
1376;SDS011;682;52.502;13.488;2023-07-20T14:36:58;0.80;;;0.60;;
1376;SDS011;682;52.502;13.488;2023-07-20T14:39:25;1.60;;;1.00;;
1376;SDS011;682;52.502;13.488;2023-07-20T14:41:52;2.00;;;0.90;;
1376;SDS011;682;52.502;13.488;2023-07-20T14:44:19;1.10;;;0.90;;
1376;SDS011;682;52.502;13.488;2023-07-20T14:46:48;1.97;;;0.80;;
1376;SDS011;682;52.502;13.488;2023-07-20T14:49:15;2.33;;;1.30;;
1376;SDS011;682;52.502;13.488;2023-07-20T14:51:43;2.00;;;0.90;;
1376;SDS011;682;52.502;13.488;2023-07-20T14:54:12;0.93;;;0.83;;
1376;SDS011;682;52.502;13.488;2023-07-20T14:56:46;3.00;;;1.27;;
1376;SDS011;682;52.502;13.488;2023-07-20T14:59:15;1.63;;;1.27;;
1376;SDS011;682;52.502;13.488;2023-07-20T15:01:43;0.80;;;0.80;;
1376;SDS011;682;52.502;13.488;2023-07-20T15:04:15;1.60;;;0.87;;
1376;SDS011;682;52.502;13.488;2023-07-20T15:06:42;3.80;;;1.53;;
1376;SDS011;682;52.502;13.488;2023-07-20T15:09:09;0.97;;;0.90;;
1376;SDS011;682;52.502;13.488;2023-07-20T15:11:36;0.70;;;0.70;;
1376;SDS011;682;52.502;13.488;2023-07-20T15:14:03;1.37;;;0.70;;
1376;SDS011;682;52.502;13.488;2023-07-20T15:16:33;1.20;;;1.03;;
1376;SDS011;682;52.502;13.488;2023-07-20T15:19:00;2.70;;;1.80;;
1376;SDS011;682;52.502;13.488;2023-07-20T15:21:29;2.60;;;1.20;;
1376;SDS011;682;52.502;13.488;2023-07-20T15:23:56;4.23;;;1.00;;
1376;SDS011;682;52.502;13.488;2023-07-20T15:26:23;1.47;;;1.20;;